Time;durP1;ratioP1;P1;durP2;ratioP2;P2;SDS_P1;SDS_P2;PMS_P1;PMS_P2;Temp;Humidity;BMP_temperature;BMP_pressure;BME280_temperature;BME280_humidity;BME280_pressure;Samples;Min_cycle;Max_cycle;Signal;HPM_P1;HPM_P2
2023/09/10 00:02:03;;;;;;;31.75;28.88;;;;;;;;;;6219298;23;20439;-85
2023/09/10 00:04:29;;;;;;;25.92;23.58;;;;;;;;;;6218316;23;20023;-85
2023/09/10 00:06:55;;;;;;;25.42;23.23;;;;;;;;;;6218797;23;20012;-85
2023/09/10 00:09:21;;;;;;;23.48;21.48;;;;;;;;;;6218953;23;20052;-85
2023/09/10 00:11:47;;;;;;;26.27;24.08;;;;;;;;;;6219094;23;20016;-85
2023/09/10 00:14:14;;;;;;;22.65;20.80;;;;;;;;;;6219080;23;20016;-85
2023/09/10 00:16:40;;;;;;;26.75;24.50;;;;;;;;;;6218624;23;20020;-85
2023/09/10 00:19:06;;;;;;;27.48;25.08;;;;;;;;;;6246141;23;20511;-85
2023/09/10 00:21:32;;;;;;;30.15;27.23;;;;;;;;;;6220354;23;20023;-85
2023/09/10 00:24:00;;;;;;;27.65;25.13;;;;;;;;;;6220450;23;20087;-85
2023/09/10 00:26:27;;;;;;;26.67;24.38;;;;;;;;;;6221026;23;20024;-85
2023/09/10 00:28:53;;;;;;;27.08;24.77;;;;;;;;;;6220550;23;20074;-85
2023/09/10 00:31:19;;;;;;;26.20;24.00;;;;;;;;;;6220674;23;20016;-85
2023/09/10 00:33:45;;;;;;;26.63;24.40;;;;;;;;;;6220136;23;20020;-85
2023/09/10 00:36:11;;;;;;;25.65;23.55;;;;;;;;;;6247045;23;20047;-85
2023/09/10 00:38:37;;;;;;;27.92;25.50;;;;;;;;;;6246793;23;20403;-85
2023/09/10 00:41:07;;;;;;;26.15;23.95;;;;;;;;;;6220566;23;20016;-86
2023/09/10 00:43:33;;;;;;;27.30;24.90;;;;;;;;;;6220883;23;20016;-85
2023/09/10 00:46:00;;;;;;;27.30;25.02;;;;;;;;;;6220309;23;20288;-86
2023/09/10 00:48:26;;;;;;;27.95;25.55;;;;;;;;;;6246956;23;20531;-85
2023/09/10 00:50:52;;;;;;;27.27;24.88;;;;;;;;;;6219469;23;20105;-85
2023/09/10 00:53:19;;;;;;;27.75;25.10;;;;;;;;;;6218652;23;20020;-85
2023/09/10 00:55:46;;;;;;;29.95;27.08;;;;;;;;;;6246601;23;20012;-85
2023/09/10 00:58:12;;;;;;;37.78;33.80;;;;;;;;;;6220563;23;20020;-85
2023/09/10 01:00:39;;;;;;;39.40;35.33;;;;;;;;;;6246697;23;20012;-85
2023/09/10 01:03:07;;;;;;;49.10;40.90;;;;;;;;;;6219234;23;20023;-85
2023/09/10 01:05:34;;;;;;;41.03;36.50;;;;;;;;;;6219368;23;20044;-85
2023/09/10 01:08:01;;;;;;;35.72;32.13;;;;;;;;;;6219841;23;20355;-85
2023/09/10 01:10:31;;;;;;;24.88;22.88;;;;;;;;;;6219623;23;20526;-85
2023/09/10 01:13:05;;;;;;;22.85;20.95;;;;;;;;;;6245791;23;20016;-85
2023/09/10 01:15:37;;;;;;;43.67;23.42;;;;;;;;;;6219402;23;20091;-85
2023/09/10 01:18:09;;;;;;;33.97;30.42;;;;;;;;;;6220000;23;20022;-85
2023/09/10 01:20:35;;;;;;;30.65;27.52;;;;;;;;;;6218918;23;20048;-86
2023/09/10 01:23:25;;;;;;;36.58;32.70;;;;;;;;;;6246836;23;20063;-85
2023/09/10 01:25:52;;;;;;;37.78;33.70;;;;;;;;;;6180260;23;20024;-85
2023/09/10 01:28:18;;;;;;;44.63;37.85;;;;;;;;;;6220004;23;20020;-85
2023/09/10 01:30:44;;;;;;;41.22;35.33;;;;;;;;;;6219204;23;20094;-85
2023/09/10 01:33:30;;;;;;;30.23;27.40;;;;;;;;;;6246947;23;20391;-85
2023/09/10 01:36:07;;;;;;;28.65;26.00;;;;;;;;;;6219700;23;20508;-86
2023/09/10 01:38:37;;;;;;;25.88;23.58;;;;;;;;;;6219317;23;20448;-85
2023/09/10 01:41:23;;;;;;;22.30;20.40;;;;;;;;;;6219435;23;20020;-85
2023/09/10 01:43:49;;;;;;;;;;;;;;;;;;6246696;23;20355;-85
2023/09/10 01:46:16;;;;;;;23.30;21.20;;;;;;;;;;6246456;23;20327;-85
2023/09/10 01:48:43;;;;;;;24.95;22.65;;;;;;;;;;6246628;23;20479;-85
2023/09/10 01:51:10;;;;;;;25.13;22.95;;;;;;;;;;6219575;23;20024;-85
2023/09/10 01:53:36;;;;;;;21.92;20.23;;;;;;;;;;6246451;23;20020;-85
2023/09/10 01:56:02;;;;;;;23.17;21.15;;;;;;;;;;6246511;23;20013;-85
2023/09/10 01:58:29;;;;;;;22.77;21.00;;;;;;;;;;6219741;23;20071;-85
2023/09/10 02:00:55;;;;;;;22.98;21.10;;;;;;;;;;6218752;23;20467;-85
2023/09/10 02:03:21;;;;;;;25.38;23.10;;;;;;;;;;6246159;23;20027;-85
2023/09/10 02:05:47;;;;;;;26.75;24.15;;;;;;;;;;6219596;23;20056;-85
2023/09/10 02:08:14;;;;;;;26.38;23.77;;;;;;;;;;6246281;23;20023;-85
2023/09/10 02:10:41;;;;;;;25.77;23.58;;;;;;;;;;6246213;23;20066;-85
2023/09/10 02:13:07;;;;;;;24.73;22.77;;;;;;;;;;6246091;23;20019;-85
2023/09/10 02:15:33;;;;;;;26.20;24.05;;;;;;;;;;6219555;23;20016;-85
2023/09/10 02:17:59;;;;;;;24.67;22.67;;;;;;;;;;6247086;23;20020;-85
2023/09/10 02:20:25;;;;;;;24.98;22.77;;;;;;;;;;6220018;23;20332;-85
2023/09/10 02:22:51;;;;;;;25.65;23.45;;;;;;;;;;6246626;23;20348;-85
2023/09/10 02:25:17;;;;;;;25.83;23.63;;;;;;;;;;6219787;23;20020;-85
2023/09/10 02:27:43;;;;;;;25.15;23.15;;;;;;;;;;6245829;23;20026;-85
2023/09/10 02:30:09;;;;;;;27.70;25.20;;;;;;;;;;6218612;23;20054;-85
2023/09/10 02:32:36;;;;;;;29.15;26.30;;;;;;;;;;6244697;23;20490;-85
2023/09/10 02:35:03;;;;;;;30.85;27.65;;;;;;;;;;6245654;23;20408;-85
2023/09/10 02:37:29;;;;;;;38.58;32.85;;;;;;;;;;6218302;23;20027;-86
2023/09/10 02:39:55;;;;;;;41.35;35.42;;;;;;;;;;6246021;23;20016;-85
2023/09/10 02:42:21;;;;;;;43.75;36.72;;;;;;;;;;6218531;23;20070;-85
2023/09/10 02:44:47;;;;;;;42.95;36.88;;;;;;;;;;6218507;23;20020;-85
2023/09/10 02:47:13;;;;;;;54.95;43.10;;;;;;;;;;6218605;23;20336;-85
2023/09/10 02:49:39;;;;;;;48.42;41.05;;;;;;;;;;6218042;23;20018;-85
2023/09/10 02:52:05;;;;;;;52.38;43.83;;;;;;;;;;6218534;23;20111;-86
2023/09/10 02:54:33;;;;;;;53.08;42.47;;;;;;;;;;6218365;23;20035;-85
2023/09/10 02:57:00;;;;;;;57.97;44.25;;;;;;;;;;6217575;23;20042;-85
2023/09/10 02:59:26;;;;;;;41.75;36.15;;;;;;;;;;6245324;23;20012;-85
2023/09/10 03:01:53;;;;;;;37.35;33.25;;;;;;;;;;6218160;23;20044;-85
2023/09/10 03:04:20;;;;;;;32.70;29.48;;;;;;;;;;6218523;23;20023;-85
2023/09/10 03:06:46;;;;;;;30.20;27.20;;;;;;;;;;6218310;23;20307;-85
2023/09/10 03:09:13;;;;;;;29.05;26.25;;;;;;;;;;6218422;23;20013;-85
2023/09/10 03:11:40;;;;;;;27.33;24.65;;;;;;;;;;6218136;23;20433;-85
2023/09/10 03:14:06;;;;;;;35.65;31.05;;;;;;;;;;6218484;23;20012;-85
2023/09/10 03:16:35;;;;;;;33.30;29.70;;;;;;;;;;6217971;23;20038;-85
2023/09/10 03:19:01;;;;;;;42.25;36.35;;;;;;;;;;6218443;23;20012;-85
2023/09/10 03:21:27;;;;;;;42.50;36.42;;;;;;;;;;6245600;23;20062;-85
2023/09/10 03:23:53;;;;;;;45.92;38.33;;;;;;;;;;6218431;23;20016;-84
2023/09/10 03:26:20;;;;;;;40.17;34.72;;;;;;;;;;6218026;23;20081;-85
2023/09/10 03:28:46;;;;;;;39.40;33.67;;;;;;;;;;6217855;23;20390;-85
2023/09/10 03:31:12;;;;;;;48.38;38.65;;;;;;;;;;6218210;23;20012;-85
2023/09/10 03:33:38;;;;;;;48.42;41.50;;;;;;;;;;6218552;23;20027;-85
2023/09/10 03:36:05;;;;;;;48.60;40.80;;;;;;;;;;6218723;23;20016;-85
2023/09/10 03:38:31;;;;;;;29.63;26.90;;;;;;;;;;6219103;23;20054;-84
2023/09/10 03:40:57;;;;;;;27.92;25.33;;;;;;;;;;6246243;23;20458;-84
2023/09/10 03:43:24;;;;;;;29.10;26.20;;;;;;;;;;6218447;23;20362;-85
2023/09/10 03:45:50;;;;;;;27.85;25.08;;;;;;;;;;6245683;23;20012;-85
2023/09/10 03:48:16;;;;;;;28.10;25.30;;;;;;;;;;6218759;23;20039;-85
2023/09/10 03:50:42;;;;;;;30.70;27.70;;;;;;;;;;6218211;23;20340;-85
2023/09/10 03:53:08;;;;;;;27.75;25.00;;;;;;;;;;6218120;23;20379;-85
2023/09/10 03:55:34;;;;;;;26.20;23.70;;;;;;;;;;6219877;23;20016;-85
2023/09/10 03:58:00;;;;;;;28.80;26.00;;;;;;;;;;6219459;23;20355;-85
2023/09/10 04:00:26;;;;;;;30.08;26.98;;;;;;;;;;6219794;23;20459;-85
2023/09/10 04:02:52;;;;;;;28.83;25.92;;;;;;;;;;6220392;23;20016;-85
2023/09/10 04:05:18;;;;;;;29.02;26.17;;;;;;;;;;6246619;23;20055;-85
2023/09/10 04:07:45;;;;;;;26.98;24.58;;;;;;;;;;6246842;23;20470;-84
2023/09/10 04:10:11;;;;;;;21.55;19.85;;;;;;;;;;6220011;23;20026;-84
2023/09/10 04:12:37;;;;;;;21.48;19.67;;;;;;;;;;6246093;23;20043;-85
2023/09/10 04:15:04;;;;;;;23.55;21.38;;;;;;;;;;6219973;23;20016;-85
2023/09/10 04:17:30;;;;;;;28.05;25.40;;;;;;;;;;6220275;23;20050;-85
2023/09/10 04:19:57;;;;;;;32.72;29.17;;;;;;;;;;6219939;23;20055;-85
2023/09/10 04:22:24;;;;;;;44.72;35.20;;;;;;;;;;6219813;23;20148;-85
2023/09/10 04:24:50;;;;;;;39.88;34.95;;;;;;;;;;6246381;23;20091;-85
2023/09/10 04:27:16;;;;;;;40.97;35.60;;;;;;;;;;6219512;23;20012;-85
2023/09/10 04:29:42;;;;;;;56.47;45.08;;;;;;;;;;6246138;23;20013;-85
2023/09/10 04:32:09;;;;;;;45.63;38.97;;;;;;;;;;6246610;23;20513;-85
2023/09/10 04:34:35;;;;;;;56.63;44.88;;;;;;;;;;6219693;23;20043;-85
2023/09/10 04:37:04;;;;;;;31.75;28.35;;;;;;;;;;6219352;23;20056;-85
2023/09/10 04:39:30;;;;;;;32.40;29.00;;;;;;;;;;6219324;23;20016;-85
2023/09/10 04:41:58;;;;;;;36.08;32.17;;;;;;;;;;6246826;23;20020;-85
2023/09/10 04:44:24;;;;;;;42.58;37.40;;;;;;;;;;6219437;23;20024;-85
2023/09/10 04:46:50;;;;;;;38.17;34.10;;;;;;;;;;6219352;23;20066;-85
2023/09/10 04:49:16;;;;;;;33.50;30.08;;;;;;;;;;6219809;23;20070;-85
2023/09/10 04:51:42;;;;;;;31.70;28.38;;;;;;;;;;6219784;23;20016;-85
2023/09/10 04:54:08;;;;;;;32.30;28.95;;;;;;;;;;6219868;23;20043;-85
2023/09/10 04:56:34;;;;;;;32.40;29.10;;;;;;;;;;6219913;23;20016;-84
2023/09/10 04:59:00;;;;;;;31.80;28.50;;;;;;;;;;6246789;23;20016;-84
2023/09/10 05:01:27;;;;;;;30.33;27.33;;;;;;;;;;6245094;23;20020;-84
2023/09/10 05:03:53;;;;;;;30.05;27.08;;;;;;;;;;6246847;23;20038;-84
2023/09/10 05:06:21;;;;;;;30.77;27.45;;;;;;;;;;6246643;23;20051;-84
2023/09/10 05:08:47;;;;;;;30.95;27.75;;;;;;;;;;6246064;23;20340;-84
2023/09/10 05:11:14;;;;;;;29.85;26.65;;;;;;;;;;6246293;23;20144;-84
2023/09/10 05:13:40;;;;;;;30.52;27.40;;;;;;;;;;6218952;23;20036;-85
2023/09/10 05:16:06;;;;;;;35.42;31.67;;;;;;;;;;6219290;23;20078;-85
2023/09/10 05:18:32;;;;;;;34.10;30.60;;;;;;;;;;6246102;23;20016;-84
2023/09/10 05:20:58;;;;;;;32.72;29.33;;;;;;;;;;6246288;23;20147;-84
2023/09/10 05:23:28;;;;;;;32.58;29.25;;;;;;;;;;6219652;23;20017;-85
2023/09/10 05:25:55;;;;;;;28.70;26.10;;;;;;;;;;6220441;23;20558;-85
2023/09/10 05:28:21;;;;;;;27.45;25.05;;;;;;;;;;6220709;23;20131;-85
2023/09/10 05:30:47;;;;;;;25.92;23.73;;;;;;;;;;6247194;23;20016;-85
2023/09/10 05:33:14;;;;;;;32.00;28.83;;;;;;;;;;6219706;23;20048;-85
2023/09/10 05:35:40;;;;;;;30.52;27.48;;;;;;;;;;6244831;23;20018;-85
2023/09/10 05:38:06;;;;;;;26.35;24.05;;;;;;;;;;6246034;23;20079;-85
2023/09/10 05:40:38;;;;;;;25.65;23.45;;;;;;;;;;6219441;23;20082;-85
2023/09/10 05:43:07;;;;;;;25.02;22.83;;;;;;;;;;6219700;23;20012;-85
2023/09/10 05:45:34;;;;;;;24.73;22.52;;;;;;;;;;6219048;23;20099;-85
2023/09/10 05:48:00;;;;;;;24.23;22.13;;;;;;;;;;6246351;23;20023;-85
2023/09/10 05:50:27;;;;;;;26.73;24.33;;;;;;;;;;6219395;23;20016;-85
2023/09/10 05:52:56;;;;;;;25.92;23.52;;;;;;;;;;6219152;23;20080;-85
2023/09/10 05:55:23;;;;;;;24.55;22.35;;;;;;;;;;6244132;23;20020;-85
2023/09/10 05:57:52;;;;;;;24.50;22.30;;;;;;;;;;6219931;23;20058;-85
2023/09/10 06:00:19;;;;;;;27.77;25.27;;;;;;;;;;6219202;23;20042;-85
2023/09/10 06:02:46;;;;;;;27.40;24.70;;;;;;;;;;6219251;23;20037;-85
2023/09/10 06:05:12;;;;;;;27.05;24.55;;;;;;;;;;6219768;23;20016;-85
2023/09/10 06:07:38;;;;;;;27.58;24.98;;;;;;;;;;6219472;23;20428;-85
2023/09/10 06:10:08;;;;;;;29.48;26.67;;;;;;;;;;6219325;23;20020;-85
2023/09/10 06:12:36;;;;;;;25.63;23.23;;;;;;;;;;6220625;23;20020;-85
2023/09/10 06:15:03;;;;;;;27.35;24.77;;;;;;;;;;6219003;23;20375;-85
2023/09/10 06:17:29;;;;;;;30.40;27.55;;;;;;;;;;6220187;23;20023;-86
2023/09/10 06:19:55;;;;;;;39.78;35.67;;;;;;;;;;6220308;23;20012;-85
2023/09/10 06:22:21;;;;;;;51.30;40.63;;;;;;;;;;6220215;23;20024;-85
2023/09/10 06:24:47;;;;;;;41.60;36.72;;;;;;;;;;6220206;23;20047;-85
2023/09/10 06:27:16;;;;;;;51.13;42.10;;;;;;;;;;6247949;23;20087;-85
2023/09/10 06:29:43;;;;;;;58.03;45.00;;;;;;;;;;6221634;23;20099;-85
2023/09/10 06:32:12;;;;;;;47.72;41.90;;;;;;;;;;6221281;23;20012;-85
2023/09/10 06:34:38;;;;;;;56.67;46.30;;;;;;;;;;6195042;23;20020;-85
2023/09/10 06:37:05;;;;;;;54.20;45.42;;;;;;;;;;6219462;23;20016;-85
2023/09/10 06:39:38;;;;;;;51.45;43.25;;;;;;;;;;6218497;23;20350;-85
2023/09/10 06:42:13;;;;;;;57.55;47.33;;;;;;;;;;6219380;23;20062;-85
2023/09/10 06:44:43;;;;;;;51.20;42.20;;;;;;;;;;6220033;23;20019;-85
2023/09/10 06:47:12;;;;;;;53.17;44.53;;;;;;;;;;6221165;23;20091;-86
2023/09/10 06:49:38;;;;;;;56.72;45.97;;;;;;;;;;6247264;23;20031;-86
2023/09/10 06:52:05;;;;;;;53.88;44.22;;;;;;;;;;6221718;23;20023;-86
2023/09/10 06:54:32;;;;;;;53.80;45.17;;;;;;;;;;6221062;23;20012;-86
2023/09/10 06:56:58;;;;;;;53.97;45.15;;;;;;;;;;6221154;23;20019;-86
2023/09/10 06:59:33;;;;;;;53.42;42.13;;;;;;;;;;6221104;23;20024;-86
2023/09/10 07:01:59;;;;;;;48.95;41.40;;;;;;;;;;6221724;23;20022;-86
2023/09/10 07:04:26;;;;;;;49.45;41.50;;;;;;;;;;6222236;23;20016;-87
2023/09/10 07:06:53;;;;;;;48.05;40.63;;;;;;;;;;6219417;23;20016;-85
2023/09/10 07:09:23;;;;;;;48.15;42.08;;;;;;;;;;6219085;23;20447;-86
2023/09/10 07:11:50;;;;;;;47.75;40.75;;;;;;;;;;6218675;23;20390;-85
2023/09/10 07:14:16;;;;;;;49.03;40.10;;;;;;;;;;6244669;23;20032;-86
2023/09/10 07:16:45;;;;;;;44.95;38.97;;;;;;;;;;6218888;23;20020;-86
2023/09/10 07:19:11;;;;;;;45.97;39.83;;;;;;;;;;6244857;23;20020;-86
2023/09/10 07:21:38;;;;;;;45.25;38.83;;;;;;;;;;6219105;23;20095;-87
2023/09/10 07:24:06;;;;;;;45.55;38.55;;;;;;;;;;6218142;23;20506;-86
2023/09/10 07:26:50;;;;;;;42.65;37.38;;;;;;;;;;6217772;23;20101;-85
2023/09/10 07:29:18;;;;;;;45.33;39.25;;;;;;;;;;6219475;23;20456;-86
2023/09/10 07:31:44;;;;;;;42.85;37.38;;;;;;;;;;6219841;23;20416;-86
2023/09/10 07:34:10;;;;;;;42.25;37.38;;;;;;;;;;6220922;23;20074;-85
2023/09/10 07:36:38;;;;;;;41.95;35.45;;;;;;;;;;6220526;23;20034;-86
2023/09/10 07:39:04;;;;;;;41.80;36.13;;;;;;;;;;6213450;23;20024;-86
2023/09/10 07:41:32;;;;;;;39.13;34.63;;;;;;;;;;6216703;23;20096;-86
2023/09/10 07:44:02;;;;;;;44.35;36.25;;;;;;;;;;6215432;23;20348;-84
2023/09/10 07:46:28;;;;;;;39.35;34.95;;;;;;;;;;6215000;23;20013;-85
2023/09/10 07:48:54;;;;;;;43.65;36.40;;;;;;;;;;6214835;23;20106;-85
2023/09/10 07:51:20;;;;;;;41.10;35.20;;;;;;;;;;6215899;23;20513;-85
2023/09/10 07:53:46;;;;;;;40.75;35.60;;;;;;;;;;6215364;23;20020;-84
2023/09/10 07:56:15;;;;;;;44.53;36.92;;;;;;;;;;6216012;23;20020;-85
2023/09/10 07:58:41;;;;;;;43.72;35.17;;;;;;;;;;6213686;23;20367;-85
2023/09/10 08:01:07;;;;;;;41.10;36.50;;;;;;;;;;6213667;23;20020;-85
2023/09/10 08:03:36;;;;;;;42.17;35.60;;;;;;;;;;6214247;23;20012;-84
2023/09/10 08:06:03;;;;;;;39.63;34.08;;;;;;;;;;6213501;23;20417;-85
2023/09/10 08:08:29;;;;;;;40.05;33.78;;;;;;;;;;6213423;23;20079;-85
2023/09/10 08:10:55;;;;;;;36.72;32.60;;;;;;;;;;6214662;23;20020;-85
2023/09/10 08:13:21;;;;;;;40.08;34.40;;;;;;;;;;6214101;23;20027;-85
2023/09/10 08:15:48;;;;;;;36.47;32.53;;;;;;;;;;6214165;23;20078;-85
2023/09/10 08:18:14;;;;;;;37.95;32.83;;;;;;;;;;6214227;23;20012;-85
2023/09/10 08:20:41;;;;;;;36.38;31.88;;;;;;;;;;6214065;23;20468;-85
2023/09/10 08:23:07;;;;;;;35.92;31.90;;;;;;;;;;6214407;23;20020;-85
2023/09/10 08:25:33;;;;;;;36.58;30.73;;;;;;;;;;6215104;23;20092;-85
2023/09/10 08:28:00;;;;;;;33.95;30.08;;;;;;;;;;6215299;23;20408;-85
2023/09/10 08:30:27;;;;;;;33.25;29.70;;;;;;;;;;6215179;23;20017;-85
2023/09/10 08:32:53;;;;;;;36.17;31.02;;;;;;;;;;6215214;23;20017;-85
2023/09/10 08:35:20;;;;;;;33.53;29.98;;;;;;;;;;6213758;23;20063;-85
2023/09/10 08:37:46;;;;;;;35.47;30.27;;;;;;;;;;6216636;23;20016;-85
2023/09/10 08:40:12;;;;;;;34.42;29.98;;;;;;;;;;6218670;23;20463;-85
2023/09/10 08:42:48;;;;;;;33.05;28.80;;;;;;;;;;6217379;23;20498;-85
2023/09/10 08:45:14;;;;;;;;;;;;;;;;;;6218320;23;20458;-85
2023/09/10 08:47:41;;;;;;;31.20;27.90;;;;;;;;;;6219209;23;19915;-85
2023/09/10 08:50:08;;;;;;;30.60;27.27;;;;;;;;;;6219663;23;20082;-85
2023/09/10 08:52:36;;;;;;;34.03;27.45;;;;;;;;;;6218670;23;20030;-85
2023/09/10 08:55:02;;;;;;;30.38;26.90;;;;;;;;;;6246500;23;20023;-85
2023/09/10 08:57:29;;;;;;;28.77;25.35;;;;;;;;;;6219744;23;20020;-85
2023/09/10 08:59:56;;;;;;;30.75;26.45;;;;;;;;;;6246497;23;20447;-85
2023/09/10 09:02:22;;;;;;;27.10;24.20;;;;;;;;;;6218597;23;20138;-85
2023/09/10 09:04:48;;;;;;;30.08;26.08;;;;;;;;;;6217894;23;20020;-85
2023/09/10 09:07:15;;;;;;;29.00;24.83;;;;;;;;;;6245830;23;20016;-85
2023/09/10 09:09:42;;;;;;;29.33;26.15;;;;;;;;;;6219069;23;20023;-85
2023/09/10 09:12:09;;;;;;;26.60;23.75;;;;;;;;;;6219129;23;20043;-85
2023/09/10 09:14:40;;;;;;;25.92;22.83;;;;;;;;;;6219086;23;20339;-85
2023/09/10 09:17:07;;;;;;;28.02;24.48;;;;;;;;;;6219090;23;20396;-85
2023/09/10 09:19:35;;;;;;;25.48;22.67;;;;;;;;;;6218930;23;20035;-85
2023/09/10 09:22:03;;;;;;;25.88;22.38;;;;;;;;;;6217621;23;20020;-84
2023/09/10 09:24:29;;;;;;;27.13;23.17;;;;;;;;;;6218812;23;20028;-85
2023/09/10 09:26:55;;;;;;;25.77;23.02;;;;;;;;;;6218674;23;20020;-86
2023/09/10 09:29:25;;;;;;;23.88;20.98;;;;;;;;;;6219312;23;20109;-84
2023/09/10 09:31:51;;;;;;;24.80;21.08;;;;;;;;;;6245460;23;20526;-87
2023/09/10 09:34:23;;;;;;;24.33;21.75;;;;;;;;;;6219410;23;20016;-88
2023/09/10 09:36:55;;;;;;;23.23;20.92;;;;;;;;;;6217971;23;20020;-87
2023/09/10 09:39:50;;;;;;;23.13;20.67;;;;;;;;;;6220753;23;20392;-89
2023/09/10 09:42:23;;;;;;;23.42;19.92;;;;;;;;;;6220217;23;20018;-86
2023/09/10 09:45:01;;;;;;;23.27;20.65;;;;;;;;;;6219019;23;20028;-87
2023/09/10 09:50:43;;;;;;;24.63;19.63;;;;;;;;;;6244821;23;20052;-88
2023/09/10 09:53:12;;;;;;;25.90;20.15;;;;;;;;;;6220716;23;20023;-87
2023/09/10 09:55:40;;;;;;;21.23;18.95;;;;;;;;;;6219346;23;20129;-86
2023/09/10 09:58:06;;;;;;;22.58;19.58;;;;;;;;;;6245610;23;20109;-86
2023/09/10 10:00:37;;;;;;;23.55;19.65;;;;;;;;;;6217830;23;20047;-85
2023/09/10 10:03:04;;;;;;;20.90;18.67;;;;;;;;;;6219265;23;20012;-87
2023/09/10 10:05:30;;;;;;;19.58;17.33;;;;;;;;;;6219085;23;20303;-86
2023/09/10 10:07:56;;;;;;;18.90;16.90;;;;;;;;;;6218748;23;20020;-87
2023/09/10 10:10:22;;;;;;;21.58;18.00;;;;;;;;;;6219275;23;20044;-86
2023/09/10 10:12:48;;;;;;;17.40;15.48;;;;;;;;;;6220403;23;20016;-86
2023/09/10 10:15:15;;;;;;;20.42;16.40;;;;;;;;;;6193880;23;20016;-86
2023/09/10 10:17:45;;;;;;;18.63;16.73;;;;;;;;;;6219494;23;20020;-85
2023/09/10 10:20:11;;;;;;;17.58;15.70;;;;;;;;;;6218606;23;20100;-86
2023/09/10 10:22:49;;;;;;;20.38;18.25;;;;;;;;;;6219207;23;20020;-85
2023/09/10 10:25:15;;;;;;;18.55;16.73;;;;;;;;;;6218719;23;20020;-86
2023/09/10 10:27:48;;;;;;;16.35;14.65;;;;;;;;;;6219441;23;20013;-88
2023/09/10 10:30:22;;;;;;;;;;;;;;;;;;6220369;23;20016;-88
2023/09/10 10:32:51;;;;;;;18.98;14.77;;;;;;;;;;6219657;23;19922;-88
2023/09/10 10:35:27;;;;;;;15.18;13.57;;;;;;;;;;6220640;23;20012;-88
2023/09/10 10:37:58;;;;;;;14.43;12.93;;;;;;;;;;6219445;23;20308;-88
2023/09/10 10:40:28;;;;;;;17.38;15.63;;;;;;;;;;6219620;23;20016;-88
2023/09/10 10:42:57;;;;;;;15.35;13.90;;;;;;;;;;6218854;23;20055;-87
2023/09/10 10:45:24;;;;;;;14.75;12.30;;;;;;;;;;6219028;23;20020;-88
2023/09/10 10:47:53;;;;;;;15.55;13.95;;;;;;;;;;6219303;23;20022;-88
2023/09/10 10:50:26;;;;;;;15.40;13.52;;;;;;;;;;6218277;23;20486;-88
2023/09/10 10:52:59;;;;;;;15.40;13.80;;;;;;;;;;6218739;23;20020;-89
2023/09/10 10:55:28;;;;;;;14.90;12.25;;;;;;;;;;6218487;23;20012;-87
2023/09/10 10:57:55;;;;;;;15.10;13.60;;;;;;;;;;6219327;23;20012;-88
2023/09/10 11:00:21;;;;;;;15.85;12.73;;;;;;;;;;6193939;23;20012;-88
2023/09/10 11:03:06;;;;;;;18.58;15.65;;;;;;;;;;6219395;23;20414;-88
2023/09/10 11:06:05;;;;;;;15.27;13.10;;;;;;;;;;6218386;23;20089;-88
2023/09/10 11:08:34;;;;;;;17.60;14.43;;;;;;;;;;6186686;23;20439;-87
2023/09/10 11:11:04;;;;;;;14.05;12.70;;;;;;;;;;6220684;23;20016;-88
2023/09/10 11:14:00;;;;;;;14.05;12.40;;;;;;;;;;6222311;23;20039;-88
2023/09/10 11:16:48;;;;;;;17.75;13.60;;;;;;;;;;6222153;23;20024;-88
2023/09/10 11:19:46;;;;;;;13.35;11.95;;;;;;;;;;6223007;23;20020;-88
2023/09/10 11:22:25;;;;;;;;;;;;;;;;;;;;;
2023/09/10 11:25:28;;;;;;;13.73;11.68;;;;;;;;;;6220995;23;20023;-88
2023/09/10 11:28:04;;;;;;;13.45;12.05;;;;;;;;;;6141383;23;20044;-89
2023/09/10 11:30:30;;;;;;;14.95;12.00;;;;;;;;;;6220388;23;20047;-89
2023/09/10 11:33:23;;;;;;;15.18;11.38;;;;;;;;;;6221389;23;20048;-88
2023/09/10 11:35:58;;;;;;;14.65;12.00;;;;;;;;;;6196252;23;20023;-89
2023/09/10 11:38:32;;;;;;;13.10;11.52;;;;;;;;;;6221596;23;20031;-90
2023/09/10 11:40:58;;;;;;;15.27;13.32;;;;;;;;;;6221092;23;20020;-87
2023/09/10 11:43:26;;;;;;;16.80;12.73;;;;;;;;;;6222628;23;20020;-88
2023/09/10 11:45:53;;;;;;;18.20;12.20;;;;;;;;;;6221749;23;20018;-89
2023/09/10 11:48:24;;;;;;;16.48;12.88;;;;;;;;;;6221173;23;20018;-89
2023/09/10 11:51:03;;;;;;;11.95;10.65;;;;;;;;;;6221087;23;20497;-89
2023/09/10 11:53:29;;;;;;;14.38;10.98;;;;;;;;;;6220210;23;20439;-87
2023/09/10 11:55:55;;;;;;;19.58;12.18;;;;;;;;;;6220079;23;20074;-87
2023/09/10 11:58:21;;;;;;;15.32;12.10;;;;;;;;;;6223584;23;20067;-89
2023/09/10 12:00:47;;;;;;;13.80;11.75;;;;;;;;;;6223144;23;20070;-89
2023/09/10 12:03:14;;;;;;;12.68;11.23;;;;;;;;;;6219760;23;20012;-88
2023/09/10 12:05:41;;;;;;;14.68;12.93;;;;;;;;;;6218429;23;20047;-89
2023/09/10 12:08:07;;;;;;;13.18;11.13;;;;;;;;;;6218668;23;20016;-88
2023/09/10 12:10:34;;;;;;;15.50;11.13;;;;;;;;;;6218973;23;20061;-89
2023/09/10 12:13:03;;;;;;;12.98;10.20;;;;;;;;;;6219059;23;20023;-88
2023/09/10 12:15:31;;;;;;;14.00;11.57;;;;;;;;;;6219288;23;20016;-88
2023/09/10 12:18:04;;;;;;;15.05;11.90;;;;;;;;;;6220611;23;20391;-88
2023/09/10 12:20:31;;;;;;;15.18;11.43;;;;;;;;;;6220977;23;20044;-88
2023/09/10 12:23:01;;;;;;;16.30;10.85;;;;;;;;;;6221501;23;20328;-89
2023/09/10 12:25:28;;;;;;;14.25;10.68;;;;;;;;;;6195951;23;20091;-87
2023/09/10 12:28:03;;;;;;;15.88;11.20;;;;;;;;;;6220995;23;20321;-87
2023/09/10 12:30:29;;;;;;;14.73;10.38;;;;;;;;;;6220252;23;20091;-87
2023/09/10 12:32:55;;;;;;;14.40;11.05;;;;;;;;;;6220283;23;20020;-88
2023/09/10 12:35:33;;;;;;;16.88;10.40;;;;;;;;;;6220416;23;20090;-87
2023/09/10 12:38:05;;;;;;;15.18;10.15;;;;;;;;;;6221488;23;20329;-87
2023/09/10 12:43:57;;;;;;;12.38;10.40;;;;;;;;;;6246701;23;20086;-86
2023/09/10 12:46:34;;;;;;;12.82;10.30;;;;;;;;;;6219699;23;20105;-86
2023/09/10 12:53:00;;;;;;;13.60;9.93;;;;;;;;;;6246974;23;20024;-87
2023/09/10 12:55:52;;;;;;;18.30;10.35;;;;;;;;;;6070557;23;20101;-87
2023/09/10 13:05:54;;;;;;;10.93;9.43;;;;;;;;;;6008264;23;20113;-86
2023/09/10 13:08:44;;;;;;;16.13;9.32;;;;;;;;;;6008873;23;20080;-88
2023/09/10 13:11:18;;;;;;;15.93;9.80;;;;;;;;;;5990573;23;20508;-87
2023/09/10 13:13:44;;;;;;;12.15;9.68;;;;;;;;;;5962794;23;20452;-89
2023/09/10 13:33:50;;;;;;;17.77;8.90;;;;;;;;;;6153542;23;20022;-86
2023/09/10 13:43:17;;;;;;;14.93;9.07;;;;;;;;;;6009184;23;20023;-88
2023/09/10 14:03:48;;;;;;;13.68;8.45;;;;;;;;;;5994255;23;20523;-89
2023/09/10 14:06:17;;;;;;;14.30;8.85;;;;;;;;;;6105215;23;20027;-89
2023/09/10 14:11:50;;;;;;;14.55;8.75;;;;;;;;;;6220232;23;20348;-89
2023/09/10 14:14:20;;;;;;;13.20;7.65;;;;;;;;;;6194542;23;20016;-89
2023/09/10 14:17:40;;;;;;;;;;;;;;;;;;;;;
2023/09/10 14:20:19;;;;;;;17.33;9.05;;;;;;;;;;6037091;23;20019;-87
2023/09/10 14:30:19;;;;;;;;;;;;;;;;;;;;;
2023/09/10 14:32:59;;;;;;;16.98;9.10;;;;;;;;;;6122662;23;20025;-87
2023/09/10 14:35:45;;;;;;;;;;;;;;;;;;6130196;23;20113;-87
2023/09/10 14:41:22;;;;;;;15.43;8.38;;;;;;;;;;6151884;23;20080;-87
2023/09/10 14:57:03;;;;;;;14.18;8.52;;;;;;;;;;6065641;23;20355;-87
2023/09/10 14:59:29;;;;;;;13.65;8.95;;;;;;;;;;6065158;23;20513;-88
2023/09/10 15:01:58;;;;;;;13.98;8.55;;;;;;;;;;6041332;23;20178;-87
2023/09/10 15:04:27;;;;;;;15.63;9.52;;;;;;;;;;6077206;23;20017;-86
2023/09/10 15:06:57;;;;;;;13.95;9.65;;;;;;;;;;6133246;23;20048;-89
2023/09/10 15:09:43;;;;;;;14.55;9.02;;;;;;;;;;6146368;23;20013;-88
2023/09/10 15:12:47;;;;;;;14.88;8.43;;;;;;;;;;6134216;23;20021;-89
2023/09/10 15:16:05;;;;;;;;;;;;;;;;;;;;;
2023/09/10 15:36:45;;;;;;;16.77;8.90;;;;;;;;;;5937935;23;20018;-90
2023/09/10 15:43:30;;;;;;;14.93;9.50;;;;;;;;;;5960087;23;20171;-90
2023/09/10 16:06:16;;;;;;;16.77;8.95;;;;;;;;;;5983005;24;20025;-90
2023/09/10 16:09:16;;;;;;;13.30;9.45;;;;;;;;;;5968524;23;20019;-90
2023/09/10 16:11:57;;;;;;;13.75;8.50;;;;;;;;;;6076589;23;20450;-90
2023/09/10 16:14:49;;;;;;;13.85;10.18;;;;;;;;;;6166190;23;20027;-90
2023/09/10 16:17:23;;;;;;;16.05;9.60;;;;;;;;;;6191504;23;20021;-89
2023/09/10 16:19:49;;;;;;;16.95;9.73;;;;;;;;;;6165860;23;20021;-87
2023/09/10 16:22:22;;;;;;;14.48;9.88;;;;;;;;;;6191908;23;20021;-88
2023/09/10 16:24:51;;;;;;;15.73;9.82;;;;;;;;;;6166294;23;20099;-87
2023/09/10 16:27:20;;;;;;;14.85;10.05;;;;;;;;;;6189719;23;20017;-87
2023/09/10 16:29:46;;;;;;;13.35;10.10;;;;;;;;;;6164824;23;20098;-86
2023/09/10 16:32:12;;;;;;;11.60;9.35;;;;;;;;;;6190059;23;20023;-88
2023/09/10 16:34:39;;;;;;;17.35;10.10;;;;;;;;;;6165277;23;20436;-88
2023/09/10 16:37:17;;;;;;;15.90;10.40;;;;;;;;;;6190329;23;20012;-90
2023/09/10 16:46:44;;;;;;;20.55;11.00;;;;;;;;;;6171769;23;20051;-88
2023/09/10 16:49:10;;;;;;;17.70;9.60;;;;;;;;;;6218897;23;20012;-89
2023/09/10 16:51:38;;;;;;;14.43;10.38;;;;;;;;;;6195498;23;20062;-90
2023/09/10 16:54:10;;;;;;;17.45;10.57;;;;;;;;;;6220457;23;20027;-88